Time;durP1;ratioP1;P1;durP2;ratioP2;P2;SDS_P1;SDS_P2;PMS_P1;PMS_P2;Temp;Humidity;BMP_temperature;BMP_pressure;BME280_temperature;BME280_humidity;BME280_pressure;Samples;Min_cycle;Max_cycle;Signal;HPM_P1;HPM_P2
2022/01/05 00:02:12;;;;;;;9.43;3.40;;;2.10;99.90;;;;;;5036515;28;20846;-62
2022/01/05 00:04:41;;;;;;;12.10;3.50;;;2.00;99.90;;;;;;5046637;28;20255;-62
2022/01/05 00:07:11;;;;;;;13.27;3.10;;;2.00;99.90;;;;;;5041076;28;20221;-62
2022/01/05 00:09:39;;;;;;;8.73;3.30;;;2.00;99.90;;;;;;5045807;28;20616;-62
2022/01/05 00:12:11;;;;;;;14.23;3.60;;;2.00;99.90;;;;;;5046417;28;20185;-62
2022/01/05 00:14:39;;;;;;;8.10;3.43;;;2.00;99.90;;;;;;5042526;28;20596;-62
2022/01/05 00:17:07;;;;;;;5.47;3.10;;;1.90;99.90;;;;;;5043103;28;20730;-62
2022/01/05 00:19:36;;;;;;;11.13;3.80;;;1.90;99.90;;;;;;5044338;28;20222;-62
2022/01/05 00:22:05;;;;;;;6.83;3.10;;;1.90;99.90;;;;;;5047952;28;20204;-62
2022/01/05 00:24:33;;;;;;;11.47;3.07;;;1.90;99.90;;;;;;5046698;28;20275;-61
2022/01/05 00:27:02;;;;;;;7.90;3.50;;;1.90;99.90;;;;;;5077487;28;20276;-62
2022/01/05 00:29:31;;;;;;;12.77;3.30;;;2.00;99.90;;;;;;5062026;28;20238;-62
2022/01/05 00:32:00;;;;;;;16.20;3.77;;;2.10;99.90;;;;;;5046427;28;20207;-62
2022/01/05 00:34:29;;;;;;;7.80;3.27;;;2.10;99.90;;;;;;5047466;28;20290;-62
2022/01/05 00:36:57;;;;;;;11.70;3.20;;;2.10;99.90;;;;;;5044386;28;20251;-61
2022/01/05 00:39:25;;;;;;;14.80;3.90;;;2.10;99.90;;;;;;5080105;28;20250;-62
2022/01/05 00:41:54;;;;;;;14.10;3.50;;;2.10;99.90;;;;;;5047013;28;20189;-62
2022/01/05 00:44:24;;;;;;;10.23;3.50;;;2.00;99.90;;;;;;5048250;28;20204;-62
2022/01/05 00:46:54;;;;;;;8.83;3.30;;;2.00;99.90;;;;;;5048263;28;20221;-62
2022/01/05 00:49:22;;;;;;;11.63;3.80;;;2.10;99.90;;;;;;5045348;28;20207;-62
2022/01/05 00:51:51;;;;;;;7.03;3.20;;;2.10;99.90;;;;;;5051190;28;20207;-62
2022/01/05 00:54:19;;;;;;;8.87;3.40;;;2.10;99.90;;;;;;5053265;28;20217;-62
2022/01/05 00:56:47;;;;;;;9.70;3.63;;;2.10;99.90;;;;;;5048712;28;20223;-61
2022/01/05 00:59:16;;;;;;;10.40;3.40;;;2.00;99.90;;;;;;5051217;28;20198;-62
2022/01/05 01:01:44;;;;;;;9.60;3.67;;;2.00;99.90;;;;;;5037709;28;20197;-61
2022/01/05 01:04:52;;;;;;;14.07;3.77;;;2.00;99.90;;;;;;5043451;28;20900;-61
2022/01/05 01:07:57;;;;;;;14.37;3.30;;;2.00;99.90;;;;;;5048704;28;20230;-62
2022/01/05 01:10:26;;;;;;;11.77;4.03;;;2.00;99.90;;;;;;5045276;28;20201;-62
2022/01/05 01:12:54;;;;;;;11.87;3.53;;;2.00;99.90;;;;;;5047544;28;20280;-61
2022/01/05 01:15:23;;;;;;;10.60;3.40;;;2.00;99.90;;;;;;5045849;28;20287;-62
2022/01/05 01:17:51;;;;;;;14.83;3.30;;;2.10;99.90;;;;;;5048278;28;20244;-62
2022/01/05 01:20:21;;;;;;;21.20;3.87;;;2.10;99.90;;;;;;5046407;28;20185;-62
2022/01/05 01:22:51;;;;;;;6.93;3.23;;;2.10;99.90;;;;;;5045100;28;20209;-61
2022/01/05 01:25:20;;;;;;;14.17;3.37;;;2.10;99.90;;;;;;5079761;28;20258;-61
2022/01/05 01:27:48;;;;;;;12.07;3.70;;;2.10;99.90;;;;;;5080530;28;20220;-62
2022/01/05 01:30:16;;;;;;;9.50;3.53;;;2.10;99.90;;;;;;5043113;28;20197;-62
2022/01/05 01:32:45;;;;;;;12.20;3.20;;;2.10;99.90;;;;;;5046469;28;20707;-62
2022/01/05 01:35:13;;;;;;;9.97;3.10;;;2.20;99.90;;;;;;5046034;28;20248;-62
2022/01/05 01:37:43;;;;;;;8.43;2.87;;;2.20;99.90;;;;;;5026332;28;20224;-62
2022/01/05 01:40:12;;;;;;;8.90;2.93;;;2.20;99.90;;;;;;5045311;28;20193;-62
2022/01/05 01:42:40;;;;;;;15.70;3.37;;;2.20;99.90;;;;;;5045904;28;20323;-62
2022/01/05 01:45:09;;;;;;;18.40;3.17;;;2.20;99.90;;;;;;5046974;28;20254;-62
2022/01/05 01:47:38;;;;;;;12.30;3.47;;;2.10;99.90;;;;;;5045026;28;20212;-62
2022/01/05 01:50:07;;;;;;;15.27;3.10;;;2.10;99.90;;;;;;5043809;28;20199;-62
2022/01/05 01:52:36;;;;;;;10.80;3.53;;;2.00;99.90;;;;;;5046721;28;20228;-62
2022/01/05 01:55:08;;;;;;;13.77;3.27;;;1.90;99.90;;;;;;5045751;28;20284;-62
2022/01/05 01:57:39;;;;;;;19.53;3.80;;;1.90;99.90;;;;;;5042007;28;20204;-62
2022/01/05 02:00:10;;;;;;;19.90;3.53;;;1.90;99.90;;;;;;5047631;28;20694;-62
2022/01/05 02:02:39;;;;;;;11.83;2.97;;;1.80;99.90;;;;;;5045466;28;20676;-62
2022/01/05 02:05:08;;;;;;;12.70;3.33;;;1.70;99.90;;;;;;5046776;28;20233;-61
2022/01/05 02:07:38;;;;;;;14.83;3.03;;;1.70;99.90;;;;;;5047629;28;20224;-62
2022/01/05 02:10:10;;;;;;;11.00;3.30;;;1.70;99.90;;;;;;5047851;28;20840;-61
2022/01/05 02:12:38;;;;;;;18.40;3.40;;;1.70;99.90;;;;;;5047645;28;20203;-61
2022/01/05 02:15:09;;;;;;;10.77;3.40;;;1.60;99.90;;;;;;5045567;28;20228;-62
2022/01/05 02:17:47;;;;;;;13.60;3.83;;;1.60;99.90;;;;;;5039343;28;20248;-62
2022/01/05 02:20:18;;;;;;;14.83;3.27;;;1.60;99.90;;;;;;5046937;28;20275;-62
2022/01/05 02:22:49;;;;;;;16.50;4.30;;;1.60;99.90;;;;;;5044252;28;20622;-61
2022/01/05 02:25:17;;;;;;;13.00;3.30;;;1.60;99.90;;;;;;5044376;28;20197;-61
2022/01/05 02:27:48;;;;;;;17.00;3.50;;;1.50;99.90;;;;;;5074258;28;20216;-62
2022/01/05 02:30:21;;;;;;;12.83;3.47;;;1.50;99.90;;;;;;5038048;28;20262;-62
2022/01/05 02:32:50;;;;;;;15.07;3.23;;;1.60;99.90;;;;;;5042495;28;20200;-62
2022/01/05 02:35:18;;;;;;;17.53;3.87;;;1.50;99.90;;;;;;5046877;28;20286;-61
2022/01/05 02:37:50;;;;;;;14.33;3.30;;;1.50;99.90;;;;;;5045109;28;20220;-62
2022/01/05 02:40:20;;;;;;;10.23;3.00;;;1.50;99.90;;;;;;5045358;28;20303;-61
2022/01/05 02:42:50;;;;;;;14.33;3.93;;;1.50;99.90;;;;;;5043900;28;20227;-61
2022/01/05 02:45:18;;;;;;;13.47;3.33;;;1.50;99.90;;;;;;5057934;28;20229;-61
2022/01/05 02:47:47;;;;;;;12.73;4.00;;;1.50;99.90;;;;;;5040971;28;20722;-61
2022/01/05 02:50:16;;;;;;;14.13;3.40;;;1.50;99.90;;;;;;5041483;28;20266;-62
2022/01/05 02:52:44;;;;;;;9.87;3.43;;;1.50;99.90;;;;;;5027292;28;20199;-61
2022/01/05 02:55:14;;;;;;;8.93;3.50;;;1.50;99.90;;;;;;5045711;28;20675;-62
2022/01/05 02:57:42;;;;;;;15.30;3.93;;;1.50;99.90;;;;;;5043601;28;20259;-62
2022/01/05 03:00:13;;;;;;;9.73;3.37;;;1.50;99.90;;;;;;5044647;28;20258;-62
2022/01/05 03:02:42;;;;;;;23.67;3.90;;;1.50;99.90;;;;;;5059822;28;20248;-61
2022/01/05 03:05:11;;;;;;;12.90;3.50;;;1.50;99.90;;;;;;5044626;28;20216;-61
2022/01/05 03:07:40;;;;;;;15.27;3.63;;;1.50;99.90;;;;;;5046231;28;20296;-62
2022/01/05 03:10:10;;;;;;;14.73;3.60;;;1.50;99.90;;;;;;5030963;28;20228;-62
2022/01/05 03:12:42;;;;;;;14.67;3.60;;;1.50;99.90;;;;;;5044215;28;20185;-62
2022/01/05 03:15:12;;;;;;;16.07;4.23;;;1.50;99.90;;;;;;5042237;28;20239;-62
2022/01/05 03:17:41;;;;;;;15.43;4.67;;;1.50;99.90;;;;;;5045954;28;20279;-61
2022/01/05 03:20:11;;;;;;;18.10;4.13;;;1.50;99.90;;;;;;5043010;28;20204;-62
2022/01/05 03:22:40;;;;;;;18.73;3.73;;;1.50;99.90;;;;;;5046396;28;20271;-61
2022/01/05 03:25:15;;;;;;;19.07;3.37;;;1.40;99.90;;;;;;5043612;28;20204;-61
2022/01/05 03:27:48;;;;;;;10.57;3.50;;;1.40;99.90;;;;;;5041373;28;20203;-62
2022/01/05 03:30:20;;;;;;;23.30;4.30;;;1.40;99.90;;;;;;5044223;28;20177;-62
2022/01/05 03:33:08;;;;;;;15.20;3.50;;;1.50;99.90;;;;;;5043455;28;20196;-62
2022/01/05 03:35:39;;;;;;;15.53;3.57;;;1.50;99.90;;;;;;5040089;28;20232;-62
2022/01/05 03:38:08;;;;;;;14.43;3.40;;;1.50;99.90;;;;;;5049118;28;20634;-61
2022/01/05 03:40:37;;;;;;;15.37;3.40;;;1.50;99.90;;;;;;5045560;28;20196;-61
2022/01/05 03:43:08;;;;;;;15.90;3.73;;;1.50;99.90;;;;;;5043334;28;20200;-62
2022/01/05 03:45:37;;;;;;;9.53;3.00;;;1.50;99.90;;;;;;5042575;28;20197;-62
2022/01/05 03:48:08;;;;;;;10.27;3.17;;;1.50;99.90;;;;;;5043379;28;20715;-61
2022/01/05 03:50:37;;;;;;;12.20;3.63;;;1.50;99.90;;;;;;5042313;28;20209;-61
2022/01/05 03:53:06;;;;;;;16.53;3.83;;;1.40;99.90;;;;;;5042795;28;20231;-62
2022/01/05 03:55:36;;;;;;;17.63;3.40;;;1.30;99.90;;;;;;5038823;28;20193;-62
2022/01/05 03:58:04;;;;;;;14.60;3.37;;;1.40;99.90;;;;;;5050044;28;20697;-62
2022/01/05 04:00:38;;;;;;;13.37;3.30;;;1.40;99.90;;;;;;5046813;28;20255;-61
2022/01/05 04:03:06;;;;;;;17.47;3.43;;;1.40;99.90;;;;;;5045735;28;20276;-62
2022/01/05 04:05:35;;;;;;;16.17;3.43;;;1.40;99.90;;;;;;5043149;28;20258;-61
2022/01/05 04:08:04;;;;;;;20.77;3.87;;;1.30;99.90;;;;;;5049956;28;20202;-61
2022/01/05 04:10:32;;;;;;;18.83;3.80;;;1.40;99.90;;;;;;5048137;28;20184;-61
2022/01/05 04:13:01;;;;;;;10.77;3.50;;;1.40;99.90;;;;;;5046488;28;20816;-61
2022/01/05 04:15:30;;;;;;;14.63;4.07;;;1.50;99.90;;;;;;5057658;28;20201;-62
2022/01/05 04:18:00;;;;;;;16.87;3.37;;;1.50;99.90;;;;;;5049235;28;20212;-61
2022/01/05 04:20:28;;;;;;;15.20;3.60;;;1.40;99.90;;;;;;5044998;28;20240;-62
2022/01/05 04:22:56;;;;;;;10.93;3.67;;;1.50;99.90;;;;;;5045761;28;20228;-61
2022/01/05 04:25:25;;;;;;;12.73;3.47;;;1.60;99.90;;;;;;5046412;28;20707;-61
2022/01/05 04:27:53;;;;;;;15.80;3.17;;;1.70;99.90;;;;;;5048943;28;20279;-61
2022/01/05 04:30:22;;;;;;;17.93;3.50;;;1.70;99.90;;;;;;5047517;28;20250;-61
2022/01/05 04:32:50;;;;;;;14.33;4.23;;;1.70;99.90;;;;;;5047430;28;20780;-61
2022/01/05 04:35:40;;;;;;;20.13;3.83;;;1.70;99.90;;;;;;5046895;28;20336;-62
2022/01/05 04:38:09;;;;;;;17.50;3.93;;;1.70;99.90;;;;;;5047389;28;20244;-62
2022/01/05 04:40:37;;;;;;;20.57;3.53;;;1.70;99.90;;;;;;5048376;28;20305;-61
2022/01/05 04:43:06;;;;;;;12.43;3.10;;;1.70;99.90;;;;;;5047403;28;20686;-62
2022/01/05 04:45:34;;;;;;;14.43;3.83;;;1.70;99.90;;;;;;5045246;28;20250;-62
2022/01/05 04:48:03;;;;;;;20.13;3.70;;;1.70;99.90;;;;;;5047096;28;20195;-62
2022/01/05 04:50:32;;;;;;;12.07;3.50;;;1.80;99.90;;;;;;5044517;28;20278;-61
2022/01/05 04:53:01;;;;;;;16.90;3.50;;;1.80;99.90;;;;;;5046236;28;20231;-61
2022/01/05 04:55:30;;;;;;;16.07;3.40;;;1.70;99.90;;;;;;5044984;28;20258;-61
2022/01/05 04:57:58;;;;;;;18.37;3.60;;;1.70;99.90;;;;;;5047128;28;20804;-61
2022/01/05 05:00:26;;;;;;;14.53;3.97;;;1.80;99.90;;;;;;5045266;28;20240;-62
2022/01/05 05:02:55;;;;;;;14.80;3.83;;;1.70;99.90;;;;;;5043095;28;20260;-62
2022/01/05 05:05:24;;;;;;;16.37;3.53;;;1.70;99.90;;;;;;5045800;28;20201;-61
2022/01/05 05:07:52;;;;;;;18.87;3.70;;;1.70;99.90;;;;;;5046801;28;20204;-64
2022/01/05 05:10:22;;;;;;;17.93;3.17;;;1.70;99.90;;;;;;5053244;28;20775;-62
2022/01/05 05:12:50;;;;;;;23.83;3.50;;;1.60;99.90;;;;;;5048860;28;20324;-61
2022/01/05 05:15:19;;;;;;;18.73;4.47;;;1.60;99.90;;;;;;5046857;28;20243;-61
2022/01/05 05:17:47;;;;;;;18.03;3.33;;;1.70;99.90;;;;;;5047183;28;20323;-62
2022/01/05 05:20:16;;;;;;;11.93;3.53;;;1.60;99.90;;;;;;5044259;28;20310;-61
2022/01/05 05:22:46;;;;;;;15.43;3.43;;;1.70;99.90;;;;;;5047408;28;20205;-61
2022/01/05 05:25:14;;;;;;;11.77;3.43;;;1.70;99.90;;;;;;5044265;28;20785;-61
2022/01/05 05:27:44;;;;;;;18.63;3.23;;;1.70;99.90;;;;;;5047318;28;20613;-61
2022/01/05 05:30:32;;;;;;;11.23;3.57;;;1.80;99.90;;;;;;5045243;28;20291;-61
2022/01/05 05:33:01;;;;;;;28.00;3.60;;;1.80;99.90;;;;;;5047756;28;20698;-62
2022/01/05 05:35:29;;;;;;;15.47;3.53;;;1.90;99.90;;;;;;5024881;28;20249;-62
2022/01/05 05:37:58;;;;;;;13.63;3.73;;;2.00;99.90;;;;;;5044658;28;20259;-62
2022/01/05 05:40:26;;;;;;;14.67;3.13;;;1.90;99.90;;;;;;5044668;28;20563;-61
2022/01/05 05:42:56;;;;;;;13.07;3.20;;;1.90;99.90;;;;;;5044278;28;20204;-62
2022/01/05 05:45:24;;;;;;;15.07;3.20;;;2.00;99.90;;;;;;5046154;28;20209;-61
2022/01/05 05:47:53;;;;;;;12.47;3.67;;;2.10;99.90;;;;;;5028772;28;20201;-62
2022/01/05 05:50:21;;;;;;;9.40;3.27;;;2.10;99.90;;;;;;5043430;28;20223;-61
2022/01/05 05:52:50;;;;;;;13.77;3.33;;;2.10;99.90;;;;;;5045998;28;20624;-62
2022/01/05 05:55:18;;;;;;;10.37;4.33;;;2.10;99.90;;;;;;5047610;28;20200;-61
2022/01/05 05:57:47;;;;;;;14.00;3.30;;;2.10;99.90;;;;;;5047339;28;20216;-61
2022/01/05 06:00:17;;;;;;;11.60;3.23;;;2.20;99.90;;;;;;5044416;28;20232;-62
2022/01/05 06:03:06;;;;;;;17.20;3.50;;;2.20;99.90;;;;;;5047330;28;20546;-62
2022/01/05 06:05:35;;;;;;;13.27;3.03;;;2.20;99.90;;;;;;5041808;28;20682;-61
2022/01/05 06:08:04;;;;;;;14.63;3.30;;;2.20;99.90;;;;;;5040535;28;20263;-62
2022/01/05 06:10:32;;;;;;;8.83;2.80;;;2.20;99.90;;;;;;5044196;28;20644;-61
2022/01/05 06:13:01;;;;;;;14.43;3.70;;;2.30;99.90;;;;;;5045513;28;20715;-62
2022/01/05 06:15:36;;;;;;;15.30;3.13;;;2.30;99.90;;;;;;5043274;28;20235;-62
2022/01/05 06:18:04;;;;;;;13.00;3.33;;;2.30;99.90;;;;;;5044040;28;20233;-61
2022/01/05 06:20:32;;;;;;;15.97;3.47;;;2.30;99.90;;;;;;5041455;28;20266;-62
2022/01/05 06:23:01;;;;;;;10.60;3.00;;;2.30;99.90;;;;;;5041215;28;20189;-62
2022/01/05 06:25:29;;;;;;;9.27;3.20;;;2.30;99.90;;;;;;5047235;28;20196;-62
2022/01/05 06:27:58;;;;;;;14.17;3.23;;;2.30;99.90;;;;;;5045796;28;20213;-62
2022/01/05 06:30:26;;;;;;;11.80;3.30;;;2.30;99.90;;;;;;5042130;28;20699;-62
2022/01/05 06:32:56;;;;;;;15.40;3.53;;;2.20;99.90;;;;;;5046295;28;20266;-62
2022/01/05 06:35:24;;;;;;;15.30;3.20;;;2.20;99.90;;;;;;5046470;28;20217;-61
2022/01/05 06:37:53;;;;;;;17.30;3.30;;;2.30;99.90;;;;;;5042934;28;20548;-61
2022/01/05 06:40:23;;;;;;;17.37;3.70;;;2.40;99.90;;;;;;5039808;28;20290;-61
2022/01/05 06:42:51;;;;;;;13.47;2.97;;;2.40;99.90;;;;;;5045385;28;20224;-62
2022/01/05 06:45:19;;;;;;;17.27;3.70;;;2.50;99.90;;;;;;5045505;28;20185;-61
2022/01/05 06:47:48;;;;;;;13.83;3.00;;;2.50;99.90;;;;;;5043320;28;20354;-61
2022/01/05 06:50:18;;;;;;;12.43;3.60;;;2.50;99.90;;;;;;5044504;28;20203;-61
2022/01/05 06:52:46;;;;;;;15.37;3.20;;;2.60;99.90;;;;;;5020147;28;20725;-62
2022/01/05 06:55:15;;;;;;;10.83;3.50;;;2.70;99.90;;;;;;5042884;28;20199;-61
2022/01/05 06:57:44;;;;;;;10.43;3.77;;;2.70;99.90;;;;;;5038468;28;20223;-61
2022/01/05 07:00:14;;;;;;;14.70;3.53;;;2.80;99.90;;;;;;5045160;28;20224;-61
2022/01/05 07:02:42;;;;;;;20.90;4.40;;;2.80;99.90;;;;;;5044923;28;20203;-62
2022/01/05 07:05:11;;;;;;;11.83;3.43;;;2.80;99.90;;;;;;5041055;28;20308;-61
2022/01/05 07:07:41;;;;;;;14.97;3.50;;;2.80;99.90;;;;;;5042489;28;20795;-61
2022/01/05 07:10:11;;;;;;;14.87;3.57;;;2.70;99.90;;;;;;5044560;28;20269;-62
2022/01/05 07:12:39;;;;;;;20.40;3.73;;;2.70;99.90;;;;;;5046595;28;20286;-62
2022/01/05 07:15:09;;;;;;;9.20;3.57;;;2.70;99.90;;;;;;5043053;28;20200;-62
2022/01/05 07:17:38;;;;;;;11.10;4.23;;;2.70;99.90;;;;;;5043006;28;20192;-61
2022/01/05 07:20:08;;;;;;;14.23;3.80;;;2.70;99.90;;;;;;5043488;28;20234;-61
2022/01/05 07:22:37;;;;;;;19.03;3.33;;;2.70;99.90;;;;;;5038475;28;20781;-62
2022/01/05 07:25:08;;;;;;;13.03;3.50;;;2.70;99.90;;;;;;5045303;28;20236;-61
2022/01/05 07:27:36;;;;;;;12.10;3.73;;;2.60;99.90;;;;;;5042682;28;20208;-61
2022/01/05 07:30:07;;;;;;;12.13;3.40;;;2.60;99.90;;;;;;5041155;28;20643;-61
2022/01/05 07:32:35;;;;;;;17.77;4.10;;;2.60;99.90;;;;;;5038809;28;20239;-62
2022/01/05 07:35:04;;;;;;;15.13;3.10;;;2.60;99.90;;;;;;5040493;28;20228;-62
2022/01/05 07:37:33;;;;;;;11.80;3.73;;;2.60;99.90;;;;;;5043995;28;20250;-62
2022/01/05 07:40:01;;;;;;;13.13;3.53;;;2.50;99.90;;;;;;5038056;28;20295;-61
2022/01/05 07:42:33;;;;;;;14.27;3.37;;;2.50;99.90;;;;;;5040826;28;20282;-62
2022/01/05 07:45:02;;;;;;;21.00;3.50;;;2.60;99.90;;;;;;5042746;28;20554;-61
2022/01/05 07:47:31;;;;;;;15.00;3.67;;;2.60;99.90;;;;;;5043600;28;20208;-61
2022/01/05 07:49:59;;;;;;;16.30;3.93;;;2.70;99.90;;;;;;5028666;28;20664;-61
2022/01/05 07:52:28;;;;;;;14.73;3.67;;;2.60;99.90;;;;;;5044148;28;20200;-62
2022/01/05 07:54:56;;;;;;;16.07;3.53;;;2.70;99.90;;;;;;5043820;28;20255;-61
2022/01/05 07:57:25;;;;;;;10.63;3.40;;;2.80;99.90;;;;;;5045136;28;20214;-61
2022/01/05 07:59:54;;;;;;;10.63;3.30;;;2.80;99.90;;;;;;5045949;28;20205;-62
2022/01/05 08:02:23;;;;;;;16.00;4.47;;;2.80;99.90;;;;;;5032869;28;20205;-62
2022/01/05 08:04:51;;;;;;;18.47;3.87;;;2.90;99.90;;;;;;5042318;28;20204;-61
2022/01/05 08:07:20;;;;;;;12.10;3.40;;;2.90;99.90;;;;;;5043042;28;20251;-61
2022/01/05 08:09:48;;;;;;;16.60;3.60;;;3.00;99.90;;;;;;5025962;28;20231;-61
2022/01/05 08:12:16;;;;;;;15.23;3.47;;;3.00;99.90;;;;;;5034986;28;20202;-61
2022/01/05 08:14:44;;;;;;;14.53;3.57;;;3.10;99.90;;;;;;5036717;28;20193;-61
2022/01/05 08:17:14;;;;;;;22.50;3.93;;;3.10;99.90;;;;;;5039040;28;20201;-61
2022/01/05 08:19:43;;;;;;;14.53;3.97;;;3.10;99.90;;;;;;5039771;28;20746;-62
2022/01/05 08:22:12;;;;;;;13.97;3.47;;;3.20;99.90;;;;;;5037630;28;20251;-61
2022/01/05 08:24:40;;;;;;;21.07;3.70;;;3.20;99.90;;;;;;5039936;28;20217;-62
2022/01/05 08:27:08;;;;;;;13.83;3.37;;;3.20;99.90;;;;;;5037949;28;20215;-61
2022/01/05 08:29:37;;;;;;;16.03;3.80;;;3.20;99.90;;;;;;5040425;28;20204;-61
2022/01/05 08:32:06;;;;;;;18.50;3.50;;;3.30;99.90;;;;;;5037891;28;20250;-61
2022/01/05 08:34:36;;;;;;;13.33;3.93;;;3.30;99.90;;;;;;5034437;28;20309;-61
2022/01/05 08:37:05;;;;;;;24.03;4.23;;;3.30;99.90;;;;;;5038110;28;20201;-62
2022/01/05 08:39:34;;;;;;;11.30;3.90;;;3.40;99.90;;;;;;5038945;28;20245;-61
2022/01/05 08:42:03;;;;;;;18.37;4.57;;;3.40;99.90;;;;;;5041839;28;20290;-61
2022/01/05 08:44:32;;;;;;;10.03;3.53;;;3.40;99.90;;;;;;5038434;28;20280;-61
2022/01/05 08:47:01;;;;;;;17.60;5.43;;;3.40;99.90;;;;;;5040036;28;20272;-62
2022/01/05 08:49:29;;;;;;;13.57;4.63;;;3.40;99.90;;;;;;5039275;28;20681;-61
2022/01/05 08:51:59;;;;;;;12.70;5.43;;;3.50;99.90;;;;;;5036316;28;20611;-62
2022/01/05 08:54:27;;;;;;;22.40;5.17;;;3.60;99.90;;;;;;5042992;28;20263;-61
2022/01/05 08:56:56;;;;;;;21.60;4.83;;;3.60;99.90;;;;;;5047147;28;20209;-61
2022/01/05 08:59:24;;;;;;;15.60;4.97;;;3.70;99.90;;;;;;5043951;28;20196;-62
2022/01/05 09:01:53;;;;;;;16.23;3.73;;;3.70;99.90;;;;;;5044994;28;20219;-62
2022/01/05 09:04:22;;;;;;;22.30;4.53;;;3.80;99.90;;;;;;5044102;28;20205;-61
2022/01/05 09:06:50;;;;;;;10.03;3.60;;;3.90;99.90;;;;;;5046775;28;20254;-61
2022/01/05 09:09:20;;;;;;;19.73;4.03;;;3.90;99.90;;;;;;5042736;28;20937;-62
2022/01/05 09:11:49;;;;;;;17.73;3.83;;;4.00;99.90;;;;;;5022491;28;20659;-61
2022/01/05 09:14:17;;;;;;;12.33;3.90;;;4.00;99.90;;;;;;5043802;28;20279;-62
2022/01/05 09:16:46;;;;;;;14.20;3.97;;;4.00;99.90;;;;;;5061101;28;20200;-61
2022/01/05 09:19:14;;;;;;;18.93;4.40;;;4.10;99.90;;;;;;5046767;28;20284;-62
2022/01/05 09:21:43;;;;;;;15.70;4.60;;;4.10;99.90;;;;;;5037737;28;20671;-62
2022/01/05 09:24:11;;;;;;;23.70;4.30;;;4.10;99.90;;;;;;5037103;28;20197;-62
2022/01/05 09:26:42;;;;;;;17.07;3.80;;;4.10;99.90;;;;;;5042008;28;20242;-62
2022/01/05 09:29:11;;;;;;;18.07;4.03;;;4.20;99.90;;;;;;5039325;28;20676;-61
2022/01/05 09:31:39;;;;;;;14.17;4.53;;;4.30;99.90;;;;;;5041899;28;20630;-62
2022/01/05 09:34:08;;;;;;;20.70;6.47;;;4.30;99.90;;;;;;5040523;28;20242;-62
2022/01/05 09:36:41;;;;;;;12.10;4.20;;;4.40;99.90;;;;;;5035448;28;20821;-62
2022/01/05 09:42:00;;;;;;;17.60;3.80;;;4.50;99.90;;;;;;5043256;28;20220;-61
2022/01/05 09:44:31;;;;;;;13.10;3.90;;;4.60;99.90;;;;;;5029200;28;20201;-62
2022/01/05 09:47:20;;;;;;;15.87;3.97;;;4.60;99.90;;;;;;5043705;28;20200;-61
2022/01/05 09:49:54;;;;;;;21.97;4.00;;;4.70;99.90;;;;;;5043778;28;20250;-62
2022/01/05 09:52:24;;;;;;;17.80;4.47;;;4.80;99.90;;;;;;5043749;28;20254;-61
2022/01/05 09:54:54;;;;;;;9.17;3.83;;;4.80;99.90;;;;;;5043125;28;20212;-62
2022/01/05 09:57:24;;;;;;;15.83;3.83;;;4.70;99.90;;;;;;5045495;28;20193;-62
2022/01/05 09:59:53;;;;;;;16.40;4.50;;;4.70;99.90;;;;;;5037539;28;20628;-61
2022/01/05 10:02:25;;;;;;;11.70;3.70;;;4.80;99.90;;;;;;5043191;28;20213;-62
2022/01/05 10:04:54;;;;;;;13.30;3.90;;;5.00;99.90;;;;;;5042803;28;20193;-62
2022/01/05 10:07:23;;;;;;;18.30;4.97;;;5.10;99.90;;;;;;5046071;28;20203;-62
2022/01/05 10:09:55;;;;;;;9.87;3.57;;;5.40;99.90;;;;;;5038212;28;20258;-62
2022/01/05 10:12:25;;;;;;;15.47;3.50;;;5.60;99.90;;;;;;5041488;28;21248;-62
2022/01/05 10:14:54;;;;;;;18.13;4.23;;;5.70;99.90;;;;;;5037823;28;21097;-62
2022/01/05 10:17:26;;;;;;;10.43;3.20;;;5.70;99.90;;;;;;5040488;28;20227;-62
2022/01/05 10:20:04;;;;;;;20.87;3.87;;;5.70;99.90;;;;;;5038180;28;20284;-62
2022/01/05 10:22:35;;;;;;;19.67;3.60;;;5.80;99.90;;;;;;5036445;28;20228;-62
2022/01/05 10:25:05;;;;;;;11.63;3.10;;;5.70;99.90;;;;;;5041860;28;20262;-62
2022/01/05 10:27:36;;;;;;;20.80;3.97;;;5.80;99.90;;;;;;5035959;28;20258;-62
2022/01/05 10:30:07;;;;;;;14.53;3.57;;;5.90;99.90;;;;;;5041299;28;20204;-62
2022/01/05 10:32:37;;;;;;;17.77;4.53;;;5.90;99.90;;;;;;5040793;28;20626;-62
2022/01/05 10:35:09;;;;;;;16.13;3.40;;;5.90;99.90;;;;;;5044011;28;20232;-62
2022/01/05 10:37:39;;;;;;;10.63;3.00;;;6.00;99.90;;;;;;5041788;28;20710;-62
2022/01/05 10:40:17;;;;;;;18.10;4.60;;;6.00;99.90;;;;;;5040862;28;20204;-62
2022/01/05 10:42:49;;;;;;;16.70;3.40;;;6.00;99.90;;;;;;5039042;28;20213;-62
2022/01/05 10:45:19;;;;;;;14.03;3.50;;;6.00;99.90;;;;;;5038023;28;20255;-62
2022/01/05 10:48:05;;;;;;;15.73;3.07;;;6.00;99.90;;;;;;5038359;28;20227;-62
2022/01/05 10:50:34;;;;;;;19.20;3.47;;;6.00;99.90;;;;;;5026648;28;20281;-62
2022/01/05 10:53:05;;;;;;;12.67;3.30;;;6.00;99.90;;;;;;5039520;28;20282;-63
2022/01/05 10:55:39;;;;;;;12.93;3.20;;;6.00;99.90;;;;;;5049841;28;20691;-62
2022/01/05 10:58:11;;;;;;;14.90;3.53;;;6.00;99.90;;;;;;5036658;28;20203;-62
2022/01/05 11:00:41;;;;;;;11.67;2.93;;;6.00;99.90;;;;;;5039936;28;20200;-62
2022/01/05 11:03:26;;;;;;;11.70;3.20;;;6.00;99.90;;;;;;5044309;28;20220;-62
2022/01/05 11:06:02;;;;;;;9.50;2.97;;;6.10;99.90;;;;;;5041319;28;20205;-62
2022/01/05 11:08:32;;;;;;;13.43;3.77;;;6.20;99.90;;;;;;5043758;28;20786;-62
2022/01/05 11:11:00;;;;;;;11.83;3.30;;;6.30;99.90;;;;;;5047467;28;20192;-62
2022/01/05 11:13:30;;;;;;;17.63;3.70;;;6.30;99.90;;;;;;5044178;28;20242;-62
2022/01/05 11:15:59;;;;;;;12.67;2.83;;;6.40;99.90;;;;;;5035813;28;20794;-62
2022/01/05 11:18:31;;;;;;;9.00;2.40;;;6.40;99.90;;;;;;5041908;28;20258;-62
2022/01/05 11:21:01;;;;;;;12.33;2.77;;;6.50;99.90;;;;;;5039168;28;20223;-62
2022/01/05 11:23:32;;;;;;;14.83;3.57;;;6.40;99.90;;;;;;5041174;28;20296;-62
2022/01/05 11:26:02;;;;;;;15.97;3.17;;;6.40;99.90;;;;;;5050581;28;20188;-62
2022/01/05 11:28:32;;;;;;;15.63;3.30;;;6.40;99.90;;;;;;5042568;28;20200;-62
2022/01/05 11:31:01;;;;;;;7.17;2.60;;;6.40;99.90;;;;;;5045345;28;20684;-62
2022/01/05 11:33:30;;;;;;;17.77;2.67;;;6.40;99.90;;;;;;5047419;28;20250;-62
2022/01/05 11:35:58;;;;;;;14.60;3.40;;;6.30;99.90;;;;;;5039586;28;20276;-62
2022/01/05 11:38:27;;;;;;;8.57;2.53;;;6.30;99.90;;;;;;5047339;28;20288;-62
2022/01/05 11:40:56;;;;;;;12.87;3.07;;;6.30;99.90;;;;;;5037585;28;20629;-62
2022/01/05 11:43:27;;;;;;;15.83;3.37;;;6.50;99.90;;;;;;5038907;28;20217;-62
2022/01/05 11:45:57;;;;;;;11.37;3.07;;;6.70;99.90;;;;;;5032701;28;20208;-62
2022/01/05 11:48:28;;;;;;;14.97;3.03;;;7.00;99.90;;;;;;5038477;28;20855;-62
2022/01/05 11:50:58;;;;;;;13.40;3.37;;;7.20;99.90;;;;;;5040499;28;20212;-62
2022/01/05 11:53:35;;;;;;;11.03;2.60;;;7.20;99.90;;;;;;5035591;28;20204;-62
2022/01/05 11:56:10;;;;;;;10.97;3.63;;;7.10;99.90;;;;;;5036062;28;20263;-62
2022/01/05 11:58:54;;;;;;;10.17;2.83;;;6.90;99.90;;;;;;5038048;28;20267;-62
2022/01/05 12:01:35;;;;;;;15.27;4.10;;;6.80;99.90;;;;;;5030714;28;20235;-62
2022/01/05 12:04:11;;;;;;;12.83;3.00;;;6.80;99.90;;;;;;5017761;28;20201;-62
2022/01/05 12:07:08;;;;;;;11.77;3.30;;;6.80;99.90;;;;;;5036621;28;20192;-63
2022/01/05 12:09:53;;;;;;;8.83;2.73;;;6.90;99.90;;;;;;5040957;28;20263;-62
2022/01/05 12:12:31;;;;;;;16.73;3.17;;;7.10;99.90;;;;;;5043512;28;20196;-62
2022/01/05 12:15:01;;;;;;;7.80;2.97;;;7.10;99.90;;;;;;5042950;28;20200;-62
2022/01/05 12:17:32;;;;;;;12.23;2.60;;;7.20;99.90;;;;;;5045680;28;20204;-62
2022/01/05 12:20:10;;;;;;;10.63;3.07;;;7.20;99.90;;;;;;5046438;28;20274;-62
2022/01/05 12:22:40;;;;;;;8.97;2.90;;;7.20;99.90;;;;;;5041924;28;20204;-62
2022/01/05 12:25:16;;;;;;;10.43;2.70;;;7.30;99.90;;;;;;5044332;28;20719;-62
2022/01/05 12:27:57;;;;;;;10.60;3.10;;;7.40;99.90;;;;;;5048305;28;20199;-62
2022/01/05 12:30:45;;;;;;;10.03;2.53;;;7.50;99.90;;;;;;5039080;28;20287;-62
2022/01/05 12:33:20;;;;;;;9.37;2.40;;;7.90;99.90;;;;;;5047300;28;20258;-62
2022/01/05 12:36:00;;;;;;;9.10;3.00;;;8.20;99.90;;;;;;5043025;28;20228;-62
2022/01/05 12:38:34;;;;;;;6.33;2.90;;;8.50;99.90;;;;;;5036895;28;20190;-63
2022/01/05 12:41:35;;;;;;;10.57;2.83;;;8.80;99.90;;;;;;5044931;28;20204;-63
2022/01/05 12:44:33;;;;;;;14.50;3.13;;;8.90;99.90;;;;;;5049223;28;20223;-62
2022/01/05 12:47:02;;;;;;;8.00;2.80;;;9.00;99.90;;;;;;5044871;28;20201;-62
2022/01/05 12:49:34;;;;;;;11.50;2.60;;;9.00;99.90;;;;;;5041685;28;20208;-63
2022/01/05 12:52:07;;;;;;;8.27;2.40;;;9.20;99.90;;;;;;5043599;28;20204;-63
2022/01/05 12:54:45;;;;;;;10.87;2.70;;;9.20;99.90;;;;;;5046897;28;20639;-63
2022/01/05 12:57:16;;;;;;;6.47;2.40;;;9.40;99.90;;;;;;5044406;28;20200;-62
2022/01/05 12:59:50;;;;;;;12.00;2.70;;;9.50;99.90;;;;;;5045650;28;20193;-62
2022/01/05 13:02:23;;;;;;;10.17;2.83;;;9.40;99.90;;;;;;5048524;28;20213;-63
2022/01/05 13:04:55;;;;;;;10.67;2.73;;;9.10;99.90;;;;;;5041256;28;20227;-63
2022/01/05 13:07:24;;;;;;;11.03;2.50;;;9.00;99.90;;;;;;5039386;28;20200;-63
2022/01/05 13:09:54;;;;;;;10.00;2.90;;;9.10;99.90;;;;;;5047064;28;20251;-63